Home > Products > Valid Products > TAF

000
FTUS44 KBRO 011128
TAFMFE
TAF
KMFE 011128Z 0112/0212 16010KT P6SM VCSH BKN100
     FM011700 20012KT P6SM FEW040 BKN100
     FM020200 35003KT 6SM BR OVC100
      TEMPO 0202/0205 2SM BR OVC020
     FM020700 36020G30KT P6SM VCSH BKN030=



000
FTUS44 KBRO 011128
TAFHRL
TAF
KHRL 011128Z 0112/0212 18010KT P6SM VCSH FEW040 BKN100
     FM011700 20012KT P6SM FEW040 BKN100
     FM020300 35003KT 6SM BR OVC040
      TEMPO 0203/0206 3/4SM BR OVC006
     FM020700 36018G30KT P6SM VCSH BKN030=



000
FTUS44 KBRO 011128
TAFBRO
TAF
KBRO 011128Z 0112/0212 18009KT P6SM VCSH FEW040 BKN100
     FM011700 20012KT P6SM FEW040 BKN100
     FM020300 35003KT 6SM BR OVC040
      TEMPO 0203/0206 3/4SM BR OVC006
     FM020700 36018G30KT P6SM VCSH BKN030=



000
FTUS44 KBRO 010530
TAFHRL
TAF
KHRL 010530Z 0106/0206 16008KT P6SM VCSH SCT050 OVC110
      TEMPO 0106/0109 5SM -RA BR BKN050
     FM011200 18010KT P6SM SCT035 BKN040
     FM011700 20012KT P6SM SCT040 SCT100
     FM020300 35005KT 6SM BR OVC040=



000
FTUS44 KBRO 010530
TAFBRO
TAF
KBRO 010530Z 0106/0206 14006KT P6SM VCSH SCT050 BKN100
      TEMPO 0106/0109 5SM -RA BR BKN050
     FM011200 18010KT P6SM SCT035 BKN040
     FM011700 20012KT P6SM SCT040 SCT100
     FM020300 35005KT 6SM BR OVC040=



000
FTUS44 KBRO 010530
TAFMFE
TAF
KMFE 010530Z 0106/0206 14007KT P6SM VCSH BKN050
      TEMPO 0106/0109 5SM -RA BR BKN020
     FM011100 16010KT P6SM SCT035 BKN040
     FM011600 18012KT P6SM SCT040 SCT100
     FM020300 01005KT 6SM BR OVC040=



000
FTUS44 KBRO 312342
TAFMFE
TAF
KMFE 312342Z 0100/0124 14015KT P6SM BKN035 OVC040
     FM010300 15010KT P6SM BKN030
     FM010500 16007KT P6SM VCSH BKN025
      TEMPO 0105/0109 5SM RA BKN020
     FM011500 19010KT P6SM SCT035 BKN040=



000
FTUS44 KBRO 312342
TAFHRL
TAF
KHRL 312342Z 0100/0124 16012KT P6SM VCSH FEW020 BKN040
     FM010500 16007KT P6SM VCSH BKN025
      TEMPO 0105/0109 5SM RA BKN020
     FM011500 19010KT P6SM SCT035 BKN040=



000
FTUS44 KBRO 312342
TAFBRO
TAF
KBRO 312342Z 0100/0124 15010KT P6SM VCSH FEW025 BKN040
     FM010500 16007KT P6SM VCSH BKN025 OVC060
      TEMPO 0105/0109 5SM RA BKN020
     FM011400 20015KT P6SM SCT035 BKN040=



000
FTUS44 KBRO 311721
TAFHRL
TAF
KHRL 311721Z 3118/0118 15020G26KT P6SM BKN035
     FM010300 15010KT P6SM OVC030
     FM010600 16007KT P6SM VCSH BKN025
     FM011500 19008KT P6SM SCT035=



000
FTUS44 KBRO 311721
TAFMFE
TAF
KMFE 311721Z 3118/0118 14018G26KT P6SM BKN035
     FM010300 15010KT P6SM BKN030
     FM010600 16007KT P6SM VCSH BKN025
     FM011300 19005KT P6SM SCT035=



000
FTUS44 KBRO 311721
TAFBRO
TAF
KBRO 311721Z 3118/0118 16017G25KT P6SM BKN035
     FM010300 15010KT P6SM OVC030
     FM010600 16007KT P6SM VCSH BKN025
     FM011400 20008KT P6SM SCT035=



000
FTUS44 KBRO 311135
TAFMFE
TAF
KMFE 311135Z 3112/0112 12010KT P6SM FEW026 BKN090
     FM311700 14018G26KT P6SM OVC050
     FM010300 15010KT P6SM BKN030
     FM010600 16007KT P6SM VCSH BKN025=



000
FTUS44 KBRO 311135
TAFHRL
TAF
KHRL 311135Z 3112/0112 11006KT 5SM BR FEW025
     FM311400 15008KT P6SM FEW025 BKN090
     FM311600 16020G25KT P6SM BKN050
     FM010300 15010KT P6SM BKN030
     FM010600 16007KT P6SM VCSH BKN025=



000
FTUS44 KBRO 311135
TAFBRO
TAF
KBRO 311135Z 3112/0112 13005KT P6SM FEW030
     FM311400 15008KT 3SM BR FEW025 BKN100
     FM311600 16020G25KT P6SM BKN050
     FM010300 15010KT P6SM BKN030
     FM010600 16007KT P6SM VCSH BKN025=



000
FTUS44 KBRO 310530
TAFHRL
TAF
KHRL 310530Z 3106/0106 09006KT P6SM OVC100
     FM310900 13003KT 3SM BR BKN060
     FM311300 15006KT 3SM BR FEW006 SCT009
     FM311600 16022G28KT P6SM BKN050
     FM010200 15007KT P6SM OVC050=



000
FTUS44 KBRO 310530
TAFMFE
TAF
KMFE 310530Z 3106/0106 09012KT P6SM FEW025 BKN060
     FM310900 14006KT 5SM BR BKN015
     FM311200 15005KT 3SM BR SCT010 BKN060
     FM311700 14020G26KT P6SM OVC050=



000
FTUS44 KBRO 310530
TAFBRO
TAF
KBRO 310530Z 3106/0106 08004KT 6SM BR BKN060
     FM311000 13003KT 2SM BR BKN060
     FM311300 15006KT 3SM BR FEW006 SCT009
     FM311600 16018G26KT P6SM BKN050
     FM010100 15008KT P6SM BKN100=



000
FTUS44 KBRO 302328 CCA
TAFMFE
TAF COR
KMFE 302328Z 3100/3124 09012KT P6SM FEW025 BKN060
     FM310900 14006KT 5SM BR BKN015
     FM311200 15005KT 3SM BR SCT010 BKN060
     FM311700 14020G26KT P6SM OVC050=



000
FTUS44 KBRO 302327
TAFHRL
TAF
KHRL 302327Z 3100/3124 08010KT P6SM SCT020 BKN060
     FM310400 13006KT 5SM BR BKN015
     FM310800 14004KT 3SM BR SCT010 BKN060
     FM311200 14006KT 2SM BR FEW006 SCT009
     FM311700 16021G27KT P6SM OVC050=



000
FTUS44 KBRO 302327
TAFMFE
TAF
KMFE 302327Z 3100/3124 09012KT P6SM OVC010
     FM310900 14006KT 5SM BR BKN015
     FM311200 15005KT 3SM BR SCT010 BKN060
     FM311700 14020G26KT P6SM OVC050=



000
FTUS44 KBRO 302327
TAFBRO
TAF
KBRO 302327Z 3100/3124 08010KT P6SM SCT020 BKN060
     FM310400 13006KT 5SM BR BKN015
     FM310800 12004KT 3SM BR SCT010 BKN060
     FM311200 15006KT 2SM BR FEW006 SCT009
     FM311600 16017G23KT P6SM OVC050=



000
FTUS44 KBRO 301729
TAFMFE
TAF
KMFE 301729Z 3018/3118 04012KT P6SM OVC015
     FM302200 03011KT P6SM SCT035
     FM310600 09010KT P6SM OVC010
     FM311600 15006KT P6SM SCT035=



000
FTUS44 KBRO 301729
TAFHRL
TAF
KHRL 301729Z 3018/3118 04013KT P6SM BKN025
     FM302200 02011KT P6SM SCT035
     FM310400 08009KT P6SM OVC020
     FM311600 15010KT P6SM SCT035=



000
FTUS44 KBRO 301729
TAFBRO
TAF
KBRO 301729Z 3018/3118 02010KT P6SM BKN025
     FM302200 02011KT P6SM SCT035
     FM310400 13008KT P6SM BKN015
     FM311600 15010KT P6SM SCT035=



000
FTUS44 KBRO 301648 AAA
TAFHRL
TAF AMD
KHRL 301648Z 3017/3112 04013KT P6SM BKN020
     FM310100 08009KT P6SM OVC020
     FM310600 13010KT P6SM SCT025 BKN050=



000
FTUS44 KBRO 301648 AAB
TAFBRO
TAF AMD
KBRO 301648Z 3017/3112 35008KT P6SM BKN015
     FM310100 08009KT P6SM OVC020
     FM310600 13010KT P6SM SCT025 BKN050=



000
FTUS44 KBRO 301647 AAA
TAFMFE
TAF AMD
KMFE 301647Z 3017/3112 04012KT P6SM BKN018
     FM302200 03011KT P6SM SCT035
     FM310600 09010KT P6SM OVC010=



000
FTUS44 KBRO 301125
TAFHRL
TAF
KHRL 301125Z 3012/3112 03006KT 3/4SM BR FEW002 OVC010
     FM301500 04007KT P6SM BKN025
      TEMPO 3016/3018 SCT025 BKN050
     FM301900 06010G15KT P6SM BKN025
     FM310100 08009KT P6SM OVC020
     FM310600 13010KT P6SM SCT025 BKN050=



000
FTUS44 KBRO 301125
TAFBRO
TAF
KBRO 301125Z 3012/3112 05003KT 5SM BR SCT060
      TEMPO 3012/3014 3/4SM BR
     FM301500 04007KT P6SM SCT025 BKN050
     FM301900 05010G15KT P6SM BKN025
     FM310100 08009KT P6SM OVC020
     FM310600 13010KT P6SM SCT025 BKN050=



000
FTUS44 KBRO 301125
TAFMFE
TAF
KMFE 301125Z 3012/3112 02005KT P6SM SCT010 SCT025
      TEMPO 3012/3014 2SM BR OVC003
     FM301400 06011KT P6SM SCT025 BKN040
     FM302000 06012G18KT P6SM BKN020
     FM310600 09010KT P6SM OVC010=



000
FTUS44 KBRO 300729 AAA
TAFHRL
TAF AMD
KHRL 300729Z 3007/3106 06003KT 2SM BR SCT005
      TEMPO 3008/3012 1/4SM FG VV002
     FM301200 VRB02KT 1/2SM FG SCT005
     FM301400 03010KT P6SM BKN020
     FM301900 06012G17KT P6SM OVC025
     FM310200 08009KT P6SM OVC010=



000
FTUS44 KBRO 300529
TAFMFE
TAF
KMFE 300529Z 3006/3106 08007KT P6SM SCT250
     FM300800 06006KT 4SM BR SCT008
     FM301200 VRB02KT 2SM BR SCT005
     FM301400 05011KT P6SM SCT035
     FM301800 06012G18KT P6SM OVC025
     FM310200 09010KT P6SM OVC010=



000
FTUS44 KBRO 300529
TAFBRO
TAF
KBRO 300529Z 3006/3106 06005KT P6SM SCT250
     FM300800 04004KT 2SM BR SCT008
     FM301200 VRB02KT 1/2SM FG SCT005
     FM301400 02009KT P6SM BKN020
     FM301900 05012G17KT P6SM OVC025
     FM310100 08009KT P6SM OVC010=



000
FTUS44 KBRO 300529
TAFHRL
TAF
KHRL 300529Z 3006/3106 06006KT P6SM SCT250
     FM300800 03004KT 2SM BR SCT008
     FM301200 VRB02KT 1/2SM FG SCT005
     FM301400 03010KT P6SM BKN020
     FM301900 06012G17KT P6SM OVC025
     FM310200 08009KT P6SM OVC010=



000
FTUS44 KBRO 292340
TAFHRL
TAF
KHRL 292340Z 3000/3024 16009KT P6SM FEW045
     FM300100 11006KT P6SM SCT250
     FM300800 05005KT 2SM BR SCT008
     FM301400 05010KT P6SM SCT035 BKN040
     FM301800 05011G16KT P6SM SCT020 BKN035=



000
FTUS44 KBRO 292340
TAFBRO
TAF
KBRO 292340Z 3000/3024 14009KT P6SM FEW040
     FM300100 11006KT P6SM SCT250
     FM300800 05004KT 2SM BR SCT008
     FM301300 05008KT P6SM SCT025 BKN035
     FM301800 05010G15KT P6SM SCT020 BKN035=



000
FTUS44 KBRO 292340
TAFMFE
TAF
KMFE 292340Z 3000/3024 12010KT P6SM FEW050
     FM300200 11007KT P6SM SCT250
     FM300700 08006KT 2SM BR SCT008
     FM301400 05011KT P6SM SCT035
     FM301900 05012G18KT P6SM SCT020 BKN035=



000
FTUS44 KBRO 291725
TAFMFE
TAF
KMFE 291725Z 2918/3018 14014KT P6SM SCT035
     FM300200 11007KT P6SM SCT250
     FM300700 08006KT 2SM BR SCT008
     FM301400 05011KT P6SM SCT035=



000
FTUS44 KBRO 291725
TAFHRL
TAF
KHRL 291725Z 2918/3018 18014KT P6SM SCT035
     FM300100 11006KT P6SM SCT250
     FM300800 05005KT 2SM BR SCT008
     FM301400 05010KT P6SM SCT035=



000
FTUS44 KBRO 291725
TAFBRO
TAF
KBRO 291725Z 2918/3018 14016KT P6SM SCT035
     FM300100 11006KT P6SM SCT250
     FM300800 05004KT 2SM BR SCT008
     FM301300 05008KT P6SM SCT025=



    US Dept of Commerce
    National Oceanic and Atmospheric Administration
    National Weather Service
    1325 East West Highway
    Silver Spring, MD 20910
    Page Author: NWS Internet Services Team
Disclaimer
Information Quality
Credits
Glossary
Privacy Policy
Freedom of Information Act (FOIA)
About Us
Career Opportunities